sensor_id;sensor_type;location;lat;lon;timestamp;P1;durP1;ratioP1;P2;durP2;ratioP2
15629;SDS011;7914;50.842;0.166;2023-10-19T00:00:47;9.27;;;1.40;;
15629;SDS011;7914;50.842;0.166;2023-10-19T00:03:17;7.25;;;1.52;;
15629;SDS011;7914;50.842;0.166;2023-10-19T00:05:44;12.48;;;1.88;;
15629;SDS011;7914;50.842;0.166;2023-10-19T00:08:11;12.10;;;2.55;;
15629;SDS011;7914;50.842;0.166;2023-10-19T00:10:51;8.02;;;1.95;;
15629;SDS011;7914;50.842;0.166;2023-10-19T00:13:36;10.30;;;1.60;;
15629;SDS011;7914;50.842;0.166;2023-10-19T00:16:04;11.57;;;2.00;;
15629;SDS011;7914;50.842;0.166;2023-10-19T00:18:46;11.27;;;2.33;;
15629;SDS011;7914;50.842;0.166;2023-10-19T00:21:13;12.57;;;1.80;;
15629;SDS011;7914;50.842;0.166;2023-10-19T00:23:39;20.25;;;2.13;;
15629;SDS011;7914;50.842;0.166;2023-10-19T00:26:05;7.88;;;2.03;;
15629;SDS011;7914;50.842;0.166;2023-10-19T00:28:36;8.98;;;1.48;;
15629;SDS011;7914;50.842;0.166;2023-10-19T00:31:04;10.60;;;2.33;;
15629;SDS011;7914;50.842;0.166;2023-10-19T00:33:33;15.32;;;1.58;;
15629;SDS011;7914;50.842;0.166;2023-10-19T00:36:06;9.43;;;2.17;;
15629;SDS011;7914;50.842;0.166;2023-10-19T00:38:36;13.85;;;2.22;;
15629;SDS011;7914;50.842;0.166;2023-10-19T00:41:03;13.88;;;1.95;;
15629;SDS011;7914;50.842;0.166;2023-10-19T00:43:30;12.45;;;2.00;;
15629;SDS011;7914;50.842;0.166;2023-10-19T00:46:01;12.13;;;2.25;;
15629;SDS011;7914;50.842;0.166;2023-10-19T00:48:29;10.02;;;1.70;;
15629;SDS011;7914;50.842;0.166;2023-10-19T00:50:57;10.43;;;2.00;;
15629;SDS011;7914;50.842;0.166;2023-10-19T00:53:48;13.10;;;1.98;;
15629;SDS011;7914;50.842;0.166;2023-10-19T00:56:14;14.43;;;3.42;;
15629;SDS011;7914;50.842;0.166;2023-10-19T00:58:44;18.65;;;2.88;;
15629;SDS011;7914;50.842;0.166;2023-10-19T01:01:18;18.67;;;2.65;;
15629;SDS011;7914;50.842;0.166;2023-10-19T01:03:49;16.00;;;3.00;;
15629;SDS011;7914;50.842;0.166;2023-10-19T01:06:17;17.83;;;2.78;;
15629;SDS011;7914;50.842;0.166;2023-10-19T01:08:45;13.30;;;2.53;;
15629;SDS011;7914;50.842;0.166;2023-10-19T01:11:11;17.92;;;3.42;;
15629;SDS011;7914;50.842;0.166;2023-10-19T01:13:40;14.88;;;2.63;;
15629;SDS011;7914;50.842;0.166;2023-10-19T01:16:12;18.98;;;3.22;;
15629;SDS011;7914;50.842;0.166;2023-10-19T01:18:49;19.52;;;2.85;;
15629;SDS011;7914;50.842;0.166;2023-10-19T01:21:24;16.50;;;3.60;;
15629;SDS011;7914;50.842;0.166;2023-10-19T01:24:05;14.73;;;2.03;;
15629;SDS011;7914;50.842;0.166;2023-10-19T01:26:37;16.63;;;2.63;;
15629;SDS011;7914;50.842;0.166;2023-10-19T01:29:03;17.33;;;3.47;;
15629;SDS011;7914;50.842;0.166;2023-10-19T01:31:42;15.35;;;3.78;;
15629;SDS011;7914;50.842;0.166;2023-10-19T01:34:21;11.98;;;2.08;;
15629;SDS011;7914;50.842;0.166;2023-10-19T01:36:47;16.50;;;2.85;;
15629;SDS011;7914;50.842;0.166;2023-10-19T01:39:16;14.80;;;2.50;;
15629;SDS011;7914;50.842;0.166;2023-10-19T01:41:44;14.70;;;2.63;;
15629;SDS011;7914;50.842;0.166;2023-10-19T01:44:10;13.57;;;2.30;;
15629;SDS011;7914;50.842;0.166;2023-10-19T01:46:40;17.02;;;2.65;;
15629;SDS011;7914;50.842;0.166;2023-10-19T01:49:09;18.17;;;3.40;;
15629;SDS011;7914;50.842;0.166;2023-10-19T01:51:34;24.48;;;3.45;;
15629;SDS011;7914;50.842;0.166;2023-10-19T01:54:03;12.30;;;3.20;;
15629;SDS011;7914;50.842;0.166;2023-10-19T01:56:31;16.27;;;2.95;;
15629;SDS011;7914;50.842;0.166;2023-10-19T01:59:00;15.20;;;2.97;;
15629;SDS011;7914;50.842;0.166;2023-10-19T02:01:26;12.73;;;3.17;;
15629;SDS011;7914;50.842;0.166;2023-10-19T02:03:52;20.38;;;3.15;;
15629;SDS011;7914;50.842;0.166;2023-10-19T02:06:31;12.95;;;2.92;;
15629;SDS011;7914;50.842;0.166;2023-10-19T02:09:02;15.75;;;3.20;;
15629;SDS011;7914;50.842;0.166;2023-10-19T02:11:48;15.80;;;2.75;;
15629;SDS011;7914;50.842;0.166;2023-10-19T02:14:18;13.82;;;3.40;;
15629;SDS011;7914;50.842;0.166;2023-10-19T02:16:45;16.67;;;2.80;;
15629;SDS011;7914;50.842;0.166;2023-10-19T02:19:20;14.65;;;2.83;;
15629;SDS011;7914;50.842;0.166;2023-10-19T02:21:56;17.58;;;2.45;;
15629;SDS011;7914;50.842;0.166;2023-10-19T02:24:23;16.50;;;3.20;;
15629;SDS011;7914;50.842;0.166;2023-10-19T02:26:51;16.67;;;2.60;;
15629;SDS011;7914;50.842;0.166;2023-10-19T02:29:21;13.82;;;2.17;;
15629;SDS011;7914;50.842;0.166;2023-10-19T02:31:47;13.15;;;2.65;;
15629;SDS011;7914;50.842;0.166;2023-10-19T02:34:14;20.25;;;2.38;;
15629;SDS011;7914;50.842;0.166;2023-10-19T02:36:43;13.48;;;2.72;;
15629;SDS011;7914;50.842;0.166;2023-10-19T02:39:10;15.05;;;2.63;;
15629;SDS011;7914;50.842;0.166;2023-10-19T02:44:07;16.00;;;3.03;;
15629;SDS011;7914;50.842;0.166;2023-10-19T02:46:38;19.77;;;2.53;;
15629;SDS011;7914;50.842;0.166;2023-10-19T02:49:04;12.18;;;2.28;;
15629;SDS011;7914;50.842;0.166;2023-10-19T02:51:38;12.00;;;2.03;;
15629;SDS011;7914;50.842;0.166;2023-10-19T02:54:06;15.25;;;3.20;;
15629;SDS011;7914;50.842;0.166;2023-10-19T02:56:33;16.65;;;3.45;;
15629;SDS011;7914;50.842;0.166;2023-10-19T02:59:03;14.95;;;3.53;;
15629;SDS011;7914;50.842;0.166;2023-10-19T03:01:31;13.20;;;2.72;;
15629;SDS011;7914;50.842;0.166;2023-10-19T03:03:59;18.90;;;2.83;;
15629;SDS011;7914;50.842;0.166;2023-10-19T03:06:29;13.35;;;2.72;;
15629;SDS011;7914;50.842;0.166;2023-10-19T03:08:59;12.45;;;2.80;;
15629;SDS011;7914;50.842;0.166;2023-10-19T03:11:47;28.02;;;5.05;;
15629;SDS011;7914;50.842;0.166;2023-10-19T03:14:18;16.90;;;4.90;;
15629;SDS011;7914;50.842;0.166;2023-10-19T03:16:44;18.75;;;3.25;;
15629;SDS011;7914;50.842;0.166;2023-10-19T03:19:10;22.52;;;4.32;;
15629;SDS011;7914;50.842;0.166;2023-10-19T03:21:38;20.58;;;3.50;;
15629;SDS011;7914;50.842;0.166;2023-10-19T03:24:08;16.08;;;3.28;;
15629;SDS011;7914;50.842;0.166;2023-10-19T03:26:38;15.18;;;2.63;;
15629;SDS011;7914;50.842;0.166;2023-10-19T03:29:08;20.08;;;3.42;;
15629;SDS011;7914;50.842;0.166;2023-10-19T03:31:40;15.50;;;3.30;;
15629;SDS011;7914;50.842;0.166;2023-10-19T03:34:10;17.20;;;3.42;;
15629;SDS011;7914;50.842;0.166;2023-10-19T03:36:38;22.80;;;3.70;;
15629;SDS011;7914;50.842;0.166;2023-10-19T03:39:04;21.33;;;2.75;;
15629;SDS011;7914;50.842;0.166;2023-10-19T03:41:37;22.50;;;5.45;;
15629;SDS011;7914;50.842;0.166;2023-10-19T03:44:07;16.40;;;3.28;;
15629;SDS011;7914;50.842;0.166;2023-10-19T03:46:44;19.15;;;3.53;;
15629;SDS011;7914;50.842;0.166;2023-10-19T03:49:23;25.05;;;5.07;;
15629;SDS011;7914;50.842;0.166;2023-10-19T03:51:55;27.40;;;4.25;;
15629;SDS011;7914;50.842;0.166;2023-10-19T03:54:25;16.00;;;3.03;;
15629;SDS011;7914;50.842;0.166;2023-10-19T03:56:52;24.55;;;3.95;;
15629;SDS011;7914;50.842;0.166;2023-10-19T03:59:20;18.17;;;3.60;;
15629;SDS011;7914;50.842;0.166;2023-10-19T04:01:46;11.85;;;2.88;;
15629;SDS011;7914;50.842;0.166;2023-10-19T04:04:13;22.65;;;3.75;;
15629;SDS011;7914;50.842;0.166;2023-10-19T04:06:39;16.67;;;3.60;;
15629;SDS011;7914;50.842;0.166;2023-10-19T04:09:19;22.85;;;4.13;;
15629;SDS011;7914;50.842;0.166;2023-10-19T04:11:45;18.52;;;4.22;;
15629;SDS011;7914;50.842;0.166;2023-10-19T04:14:14;38.83;;;3.95;;
15629;SDS011;7914;50.842;0.166;2023-10-19T04:16:40;25.42;;;4.15;;
15629;SDS011;7914;50.842;0.166;2023-10-19T04:19:10;26.42;;;4.30;;
15629;SDS011;7914;50.842;0.166;2023-10-19T04:21:36;23.63;;;3.17;;
15629;SDS011;7914;50.842;0.166;2023-10-19T04:24:07;20.23;;;4.05;;
15629;SDS011;7914;50.842;0.166;2023-10-19T04:26:33;21.67;;;3.92;;
15629;SDS011;7914;50.842;0.166;2023-10-19T04:29:03;20.75;;;3.40;;
15629;SDS011;7914;50.842;0.166;2023-10-19T04:31:38;23.13;;;3.63;;
15629;SDS011;7914;50.842;0.166;2023-10-19T04:34:15;21.33;;;4.10;;
15629;SDS011;7914;50.842;0.166;2023-10-19T04:36:45;18.63;;;4.85;;
15629;SDS011;7914;50.842;0.166;2023-10-19T04:39:11;17.38;;;3.25;;
15629;SDS011;7914;50.842;0.166;2023-10-19T04:41:39;19.50;;;3.53;;
15629;SDS011;7914;50.842;0.166;2023-10-19T04:44:05;19.55;;;4.90;;
15629;SDS011;7914;50.842;0.166;2023-10-19T04:46:33;24.58;;;3.97;;
15629;SDS011;7914;50.842;0.166;2023-10-19T04:48:59;23.30;;;4.15;;
15629;SDS011;7914;50.842;0.166;2023-10-19T04:51:26;22.73;;;4.03;;
15629;SDS011;7914;50.842;0.166;2023-10-19T04:53:53;11.38;;;3.08;;
15629;SDS011;7914;50.842;0.166;2023-10-19T04:56:21;17.13;;;3.38;;
15629;SDS011;7914;50.842;0.166;2023-10-19T04:58:47;17.00;;;4.93;;
15629;SDS011;7914;50.842;0.166;2023-10-19T05:01:15;21.25;;;4.40;;
15629;SDS011;7914;50.842;0.166;2023-10-19T05:03:41;21.65;;;4.40;;
15629;SDS011;7914;50.842;0.166;2023-10-19T05:06:07;15.73;;;3.30;;
15629;SDS011;7914;50.842;0.166;2023-10-19T05:08:34;23.73;;;4.32;;
15629;SDS011;7914;50.842;0.166;2023-10-19T05:11:01;17.75;;;3.55;;
15629;SDS011;7914;50.842;0.166;2023-10-19T05:13:28;13.57;;;3.17;;
15629;SDS011;7914;50.842;0.166;2023-10-19T05:15:55;12.65;;;3.00;;
15629;SDS011;7914;50.842;0.166;2023-10-19T05:18:21;24.83;;;4.55;;
15629;SDS011;7914;50.842;0.166;2023-10-19T05:20:47;21.17;;;4.03;;
15629;SDS011;7914;50.842;0.166;2023-10-19T05:23:15;23.63;;;4.03;;
15629;SDS011;7914;50.842;0.166;2023-10-19T05:25:40;18.55;;;3.25;;
15629;SDS011;7914;50.842;0.166;2023-10-19T05:28:06;19.83;;;4.15;;
15629;SDS011;7914;50.842;0.166;2023-10-19T05:30:33;21.55;;;4.05;;
15629;SDS011;7914;50.842;0.166;2023-10-19T05:33:00;26.55;;;5.55;;
15629;SDS011;7914;50.842;0.166;2023-10-19T05:35:27;18.60;;;4.00;;
15629;SDS011;7914;50.842;0.166;2023-10-19T05:37:54;18.92;;;4.30;;
15629;SDS011;7914;50.842;0.166;2023-10-19T05:40:22;18.30;;;3.70;;
15629;SDS011;7914;50.842;0.166;2023-10-19T05:42:49;16.65;;;3.45;;
15629;SDS011;7914;50.842;0.166;2023-10-19T05:45:15;24.33;;;4.15;;
15629;SDS011;7914;50.842;0.166;2023-10-19T05:47:43;24.42;;;3.58;;
15629;SDS011;7914;50.842;0.166;2023-10-19T05:50:09;16.15;;;3.25;;
15629;SDS011;7914;50.842;0.166;2023-10-19T05:52:40;20.63;;;3.88;;
15629;SDS011;7914;50.842;0.166;2023-10-19T05:55:07;23.35;;;4.05;;
15629;SDS011;7914;50.842;0.166;2023-10-19T05:57:35;17.52;;;3.28;;
15629;SDS011;7914;50.842;0.166;2023-10-19T06:00:04;16.38;;;2.83;;
15629;SDS011;7914;50.842;0.166;2023-10-19T06:02:30;23.23;;;4.32;;
15629;SDS011;7914;50.842;0.166;2023-10-19T06:04:56;24.13;;;4.53;;
15629;SDS011;7914;50.842;0.166;2023-10-19T06:07:22;18.35;;;4.55;;
15629;SDS011;7914;50.842;0.166;2023-10-19T06:09:50;17.75;;;3.65;;
15629;SDS011;7914;50.842;0.166;2023-10-19T06:12:15;15.30;;;3.03;;
15629;SDS011;7914;50.842;0.166;2023-10-19T06:14:41;18.48;;;3.47;;
15629;SDS011;7914;50.842;0.166;2023-10-19T06:17:07;14.77;;;2.95;;
15629;SDS011;7914;50.842;0.166;2023-10-19T06:19:32;19.90;;;3.88;;
15629;SDS011;7914;50.842;0.166;2023-10-19T06:21:58;19.67;;;3.35;;
15629;SDS011;7914;50.842;0.166;2023-10-19T06:24:25;14.15;;;3.60;;
15629;SDS011;7914;50.842;0.166;2023-10-19T06:26:50;20.73;;;2.85;;
15629;SDS011;7914;50.842;0.166;2023-10-19T06:29:17;12.57;;;2.80;;
15629;SDS011;7914;50.842;0.166;2023-10-19T06:31:43;22.80;;;3.97;;
15629;SDS011;7914;50.842;0.166;2023-10-19T06:34:09;14.20;;;2.00;;
15629;SDS011;7914;50.842;0.166;2023-10-19T06:36:35;16.10;;;3.03;;
15629;SDS011;7914;50.842;0.166;2023-10-19T06:39:02;16.33;;;3.65;;
15629;SDS011;7914;50.842;0.166;2023-10-19T06:41:31;12.85;;;3.35;;
15629;SDS011;7914;50.842;0.166;2023-10-19T06:43:56;11.57;;;2.53;;
15629;SDS011;7914;50.842;0.166;2023-10-19T06:46:23;17.25;;;3.03;;
15629;SDS011;7914;50.842;0.166;2023-10-19T06:48:49;15.95;;;2.85;;
15629;SDS011;7914;50.842;0.166;2023-10-19T06:51:16;15.60;;;3.40;;
15629;SDS011;7914;50.842;0.166;2023-10-19T06:53:42;12.80;;;3.42;;
15629;SDS011;7914;50.842;0.166;2023-10-19T06:56:07;18.52;;;3.63;;
15629;SDS011;7914;50.842;0.166;2023-10-19T06:58:33;18.55;;;2.88;;
15629;SDS011;7914;50.842;0.166;2023-10-19T07:00:59;16.48;;;2.33;;
15629;SDS011;7914;50.842;0.166;2023-10-19T07:03:30;13.05;;;2.20;;
15629;SDS011;7914;50.842;0.166;2023-10-19T07:05:56;14.90;;;2.53;;
15629;SDS011;7914;50.842;0.166;2023-10-19T07:08:23;12.75;;;2.80;;
15629;SDS011;7914;50.842;0.166;2023-10-19T07:10:49;10.70;;;2.17;;
15629;SDS011;7914;50.842;0.166;2023-10-19T07:13:15;11.18;;;2.97;;
15629;SDS011;7914;50.842;0.166;2023-10-19T07:15:41;12.73;;;2.80;;
15629;SDS011;7914;50.842;0.166;2023-10-19T07:18:09;14.18;;;2.92;;
15629;SDS011;7914;50.842;0.166;2023-10-19T07:20:35;18.38;;;3.30;;
15629;SDS011;7914;50.842;0.166;2023-10-19T07:23:04;17.88;;;3.10;;
15629;SDS011;7914;50.842;0.166;2023-10-19T07:25:56;13.70;;;3.75;;
15629;SDS011;7914;50.842;0.166;2023-10-19T07:28:25;11.88;;;3.08;;
15629;SDS011;7914;50.842;0.166;2023-10-19T07:30:51;11.57;;;3.05;;
15629;SDS011;7914;50.842;0.166;2023-10-19T07:33:17;13.27;;;2.65;;
15629;SDS011;7914;50.842;0.166;2023-10-19T07:35:45;17.25;;;3.70;;
15629;SDS011;7914;50.842;0.166;2023-10-19T07:38:15;18.65;;;4.25;;
15629;SDS011;7914;50.842;0.166;2023-10-19T07:40:42;18.15;;;3.47;;
15629;SDS011;7914;50.842;0.166;2023-10-19T07:43:11;12.55;;;2.38;;
15629;SDS011;7914;50.842;0.166;2023-10-19T07:45:37;14.07;;;2.72;;
15629;SDS011;7914;50.842;0.166;2023-10-19T07:48:03;15.63;;;4.75;;
15629;SDS011;7914;50.842;0.166;2023-10-19T07:50:33;14.75;;;3.75;;
15629;SDS011;7914;50.842;0.166;2023-10-19T07:52:59;12.07;;;3.33;;
15629;SDS011;7914;50.842;0.166;2023-10-19T07:55:25;12.63;;;2.83;;
15629;SDS011;7914;50.842;0.166;2023-10-19T07:57:50;20.05;;;2.78;;
15629;SDS011;7914;50.842;0.166;2023-10-19T08:00:17;12.30;;;3.72;;
15629;SDS011;7914;50.842;0.166;2023-10-19T08:02:43;9.10;;;2.40;;
15629;SDS011;7914;50.842;0.166;2023-10-19T08:05:16;10.57;;;3.00;;
15629;SDS011;7914;50.842;0.166;2023-10-19T08:07:45;11.45;;;2.67;;
15629;SDS011;7914;50.842;0.166;2023-10-19T08:10:15;10.35;;;3.10;;
15629;SDS011;7914;50.842;0.166;2023-10-19T08:12:42;10.20;;;2.20;;
15629;SDS011;7914;50.842;0.166;2023-10-19T08:15:09;13.77;;;3.58;;
15629;SDS011;7914;50.842;0.166;2023-10-19T08:17:40;7.28;;;2.05;;
15629;SDS011;7914;50.842;0.166;2023-10-19T08:20:07;11.32;;;2.50;;
15629;SDS011;7914;50.842;0.166;2023-10-19T08:22:37;9.60;;;2.03;;
15629;SDS011;7914;50.842;0.166;2023-10-19T08:25:03;11.63;;;2.55;;
15629;SDS011;7914;50.842;0.166;2023-10-19T08:27:37;5.25;;;1.92;;
15629;SDS011;7914;50.842;0.166;2023-10-19T08:30:09;13.50;;;3.03;;
15629;SDS011;7914;50.842;0.166;2023-10-19T08:32:41;9.00;;;2.45;;
15629;SDS011;7914;50.842;0.166;2023-10-19T08:35:07;12.93;;;2.47;;
15629;SDS011;7914;50.842;0.166;2023-10-19T08:37:36;9.25;;;2.40;;
15629;SDS011;7914;50.842;0.166;2023-10-19T08:40:05;15.63;;;3.25;;
15629;SDS011;7914;50.842;0.166;2023-10-19T08:42:44;10.32;;;2.63;;
15629;SDS011;7914;50.842;0.166;2023-10-19T08:45:11;16.75;;;2.70;;
15629;SDS011;7914;50.842;0.166;2023-10-19T08:50:27;10.88;;;2.50;;
15629;SDS011;7914;50.842;0.166;2023-10-19T08:52:54;10.57;;;1.95;;
15629;SDS011;7914;50.842;0.166;2023-10-19T08:55:24;11.85;;;2.20;;
15629;SDS011;7914;50.842;0.166;2023-10-19T08:57:51;12.95;;;2.35;;
15629;SDS011;7914;50.842;0.166;2023-10-19T09:00:17;11.27;;;2.47;;
15629;SDS011;7914;50.842;0.166;2023-10-19T09:02:47;9.23;;;1.73;;
15629;SDS011;7914;50.842;0.166;2023-10-19T09:05:13;9.13;;;2.20;;
15629;SDS011;7914;50.842;0.166;2023-10-19T09:07:47;10.68;;;2.40;;
15629;SDS011;7914;50.842;0.166;2023-10-19T09:10:23;14.13;;;3.03;;
15629;SDS011;7914;50.842;0.166;2023-10-19T09:15:35;17.83;;;2.55;;
15629;SDS011;7914;50.842;0.166;2023-10-19T09:18:11;15.27;;;2.42;;
15629;SDS011;7914;50.842;0.166;2023-10-19T09:20:39;7.03;;;2.17;;
15629;SDS011;7914;50.842;0.166;2023-10-19T09:23:07;12.95;;;2.60;;
15629;SDS011;7914;50.842;0.166;2023-10-19T09:25:33;15.00;;;2.75;;
15629;SDS011;7914;50.842;0.166;2023-10-19T09:28:00;11.98;;;3.67;;
15629;SDS011;7914;50.842;0.166;2023-10-19T09:30:27;9.98;;;1.70;;
15629;SDS011;7914;50.842;0.166;2023-10-19T09:32:56;11.63;;;2.30;;
15629;SDS011;7914;50.842;0.166;2023-10-19T09:35:24;15.05;;;2.47;;
15629;SDS011;7914;50.842;0.166;2023-10-19T09:37:53;11.30;;;2.15;;
15629;SDS011;7914;50.842;0.166;2023-10-19T09:40:20;8.07;;;2.05;;
15629;SDS011;7914;50.842;0.166;2023-10-19T09:42:48;6.82;;;1.65;;
15629;SDS011;7914;50.842;0.166;2023-10-19T09:45:19;11.90;;;2.20;;
15629;SDS011;7914;50.842;0.166;2023-10-19T09:47:51;11.50;;;2.33;;
15629;SDS011;7914;50.842;0.166;2023-10-19T09:50:19;9.98;;;2.65;;
15629;SDS011;7914;50.842;0.166;2023-10-19T09:52:45;9.38;;;2.17;;
15629;SDS011;7914;50.842;0.166;2023-10-19T09:55:19;10.73;;;1.80;;
15629;SDS011;7914;50.842;0.166;2023-10-19T09:57:55;9.05;;;2.13;;
15629;SDS011;7914;50.842;0.166;2023-10-19T10:00:24;10.82;;;2.00;;
15629;SDS011;7914;50.842;0.166;2023-10-19T10:02:51;7.32;;;1.63;;
15629;SDS011;7914;50.842;0.166;2023-10-19T10:10:45;9.38;;;2.30;;
15629;SDS011;7914;50.842;0.166;2023-10-19T10:15:50;12.88;;;2.10;;
15629;SDS011;7914;50.842;0.166;2023-10-19T10:18:19;14.75;;;2.85;;
15629;SDS011;7914;50.842;0.166;2023-10-19T10:20:46;10.48;;;1.80;;
15629;SDS011;7914;50.842;0.166;2023-10-19T10:23:23;7.97;;;1.90;;
15629;SDS011;7914;50.842;0.166;2023-10-19T10:25:57;12.15;;;2.28;;
15629;SDS011;7914;50.842;0.166;2023-10-19T10:28:23;5.93;;;1.35;;
15629;SDS011;7914;50.842;0.166;2023-10-19T10:31:08;8.25;;;2.00;;
15629;SDS011;7914;50.842;0.166;2023-10-19T10:36:17;12.52;;;2.92;;
15629;SDS011;7914;50.842;0.166;2023-10-19T10:38:48;9.52;;;2.30;;
15629;SDS011;7914;50.842;0.166;2023-10-19T10:41:22;6.57;;;1.55;;
15629;SDS011;7914;50.842;0.166;2023-10-19T10:43:56;6.30;;;1.88;;
15629;SDS011;7914;50.842;0.166;2023-10-19T10:46:24;12.88;;;2.05;;
15629;SDS011;7914;50.842;0.166;2023-10-19T10:48:51;7.72;;;2.08;;
15629;SDS011;7914;50.842;0.166;2023-10-19T10:53:47;8.63;;;2.65;;
15629;SDS011;7914;50.842;0.166;2023-10-19T10:56:14;11.10;;;1.92;;
15629;SDS011;7914;50.842;0.166;2023-10-19T10:58:41;9.55;;;1.63;;
15629;SDS011;7914;50.842;0.166;2023-10-19T11:01:06;12.15;;;3.47;;
15629;SDS011;7914;50.842;0.166;2023-10-19T11:03:32;12.23;;;3.55;;
15629;SDS011;7914;50.842;0.166;2023-10-19T11:06:07;11.18;;;2.20;;
15629;SDS011;7914;50.842;0.166;2023-10-19T11:08:37;8.77;;;1.52;;
15629;SDS011;7914;50.842;0.166;2023-10-19T11:11:07;13.50;;;2.72;;
15629;SDS011;7914;50.842;0.166;2023-10-19T11:13:37;11.68;;;2.15;;
15629;SDS011;7914;50.842;0.166;2023-10-19T11:16:05;6.13;;;1.40;;
15629;SDS011;7914;50.842;0.166;2023-10-19T11:18:33;12.07;;;2.15;;
15629;SDS011;7914;50.842;0.166;2023-10-19T11:23:40;10.73;;;1.77;;
15629;SDS011;7914;50.842;0.166;2023-10-19T11:26:14;11.98;;;2.33;;
15629;SDS011;7914;50.842;0.166;2023-10-19T11:28:46;3.20;;;0.95;;
15629;SDS011;7914;50.842;0.166;2023-10-19T11:31:19;7.15;;;1.20;;
15629;SDS011;7914;50.842;0.166;2023-10-19T11:33:47;11.40;;;2.50;;
15629;SDS011;7914;50.842;0.166;2023-10-19T11:36:14;9.75;;;2.03;;
15629;SDS011;7914;50.842;0.166;2023-10-19T11:38:41;11.05;;;1.95;;
15629;SDS011;7914;50.842;0.166;2023-10-19T11:41:10;9.02;;;2.10;;
15629;SDS011;7914;50.842;0.166;2023-10-19T11:43:40;12.88;;;2.13;;
15629;SDS011;7914;50.842;0.166;2023-10-19T11:46:07;11.20;;;2.15;;
15629;SDS011;7914;50.842;0.166;2023-10-19T11:48:34;16.55;;;2.33;;
15629;SDS011;7914;50.842;0.166;2023-10-19T11:51:01;7.90;;;2.13;;
15629;SDS011;7914;50.842;0.166;2023-10-19T11:53:35;8.65;;;2.05;;
15629;SDS011;7914;50.842;0.166;2023-10-19T11:56:06;9.88;;;2.15;;
15629;SDS011;7914;50.842;0.166;2023-10-19T11:58:33;8.70;;;1.65;;
15629;SDS011;7914;50.842;0.166;2023-10-19T12:01:03;14.40;;;2.75;;
15629;SDS011;7914;50.842;0.166;2023-10-19T12:03:33;14.77;;;1.90;;
15629;SDS011;7914;50.842;0.166;2023-10-19T12:06:04;10.55;;;2.25;;
15629;SDS011;7914;50.842;0.166;2023-10-19T12:08:34;9.80;;;1.85;;
15629;SDS011;7914;50.842;0.166;2023-10-19T12:11:04;11.35;;;1.98;;
15629;SDS011;7914;50.842;0.166;2023-10-19T12:13:40;12.55;;;2.30;;
15629;SDS011;7914;50.842;0.166;2023-10-19T12:18:37;14.38;;;2.45;;
15629;SDS011;7914;50.842;0.166;2023-10-19T12:21:03;5.60;;;1.58;;
15629;SDS011;7914;50.842;0.166;2023-10-19T12:23:33;8.38;;;1.60;;
15629;SDS011;7914;50.842;0.166;2023-10-19T12:25:58;16.60;;;4.00;;
15629;SDS011;7914;50.842;0.166;2023-10-19T12:28:28;11.07;;;2.30;;
15629;SDS011;7914;50.842;0.166;2023-10-19T12:30:54;15.98;;;2.20;;
15629;SDS011;7914;50.842;0.166;2023-10-19T12:33:21;8.82;;;2.03;;
15629;SDS011;7914;50.842;0.166;2023-10-19T12:35:47;8.02;;;1.58;;
15629;SDS011;7914;50.842;0.166;2023-10-19T12:38:24;10.98;;;2.70;;
15629;SDS011;7914;50.842;0.166;2023-10-19T12:40:51;7.38;;;1.65;;
15629;SDS011;7914;50.842;0.166;2023-10-19T12:43:17;14.88;;;2.40;;
15629;SDS011;7914;50.842;0.166;2023-10-19T12:45:50;8.80;;;2.30;;
15629;SDS011;7914;50.842;0.166;2023-10-19T12:48:19;9.23;;;2.47;;
15629;SDS011;7914;50.842;0.166;2023-10-19T12:50:46;16.33;;;2.60;;
15629;SDS011;7914;50.842;0.166;2023-10-19T12:53:12;9.25;;;2.80;;
15629;SDS011;7914;50.842;0.166;2023-10-19T12:55:39;10.52;;;2.47;;
15629;SDS011;7914;50.842;0.166;2023-10-19T12:58:05;13.63;;;2.92;;
15629;SDS011;7914;50.842;0.166;2023-10-19T13:00:37;6.65;;;1.95;;
15629;SDS011;7914;50.842;0.166;2023-10-19T13:03:08;10.13;;;2.10;;
15629;SDS011;7914;50.842;0.166;2023-10-19T13:05:38;5.80;;;1.38;;
15629;SDS011;7914;50.842;0.166;2023-10-19T13:08:06;9.40;;;2.20;;
15629;SDS011;7914;50.842;0.166;2023-10-19T13:10:38;11.25;;;1.88;;
15629;SDS011;7914;50.842;0.166;2023-10-19T13:13:07;8.80;;;2.63;;
15629;SDS011;7914;50.842;0.166;2023-10-19T13:15:37;8.13;;;1.90;;
15629;SDS011;7914;50.842;0.166;2023-10-19T13:18:04;8.15;;;1.48;;
15629;SDS011;7914;50.842;0.166;2023-10-19T13:20:32;12.15;;;1.80;;
15629;SDS011;7914;50.842;0.166;2023-10-19T13:23:09;8.77;;;2.03;;
15629;SDS011;7914;50.842;0.166;2023-10-19T13:25:42;10.13;;;2.25;;
15629;SDS011;7914;50.842;0.166;2023-10-19T13:28:33;9.20;;;2.00;;
15629;SDS011;7914;50.842;0.166;2023-10-19T13:31:00;9.15;;;1.88;;
15629;SDS011;7914;50.842;0.166;2023-10-19T13:33:25;7.75;;;1.98;;
15629;SDS011;7914;50.842;0.166;2023-10-19T13:35:51;7.20;;;2.55;;
15629;SDS011;7914;50.842;0.166;2023-10-19T13:38:18;10.88;;;2.72;;
15629;SDS011;7914;50.842;0.166;2023-10-19T13:40:47;8.35;;;2.33;;
15629;SDS011;7914;50.842;0.166;2023-10-19T13:43:15;10.70;;;2.63;;
15629;SDS011;7914;50.842;0.166;2023-10-19T13:48:10;5.78;;;2.05;;
15629;SDS011;7914;50.842;0.166;2023-10-19T13:50:40;8.32;;;2.30;;
15629;SDS011;7914;50.842;0.166;2023-10-19T13:53:14;7.22;;;2.17;;
15629;SDS011;7914;50.842;0.166;2023-10-19T13:55:40;6.72;;;2.08;;
15629;SDS011;7914;50.842;0.166;2023-10-19T13:58:06;13.40;;;2.10;;
15629;SDS011;7914;50.842;0.166;2023-10-19T14:00:32;11.10;;;2.35;;
15629;SDS011;7914;50.842;0.166;2023-10-19T14:02:58;4.80;;;1.77;;
15629;SDS011;7914;50.842;0.166;2023-10-19T14:05:26;9.95;;;1.92;;
15629;SDS011;7914;50.842;0.166;2023-10-19T14:07:52;12.32;;;3.03;;
15629;SDS011;7914;50.842;0.166;2023-10-19T14:10:18;6.55;;;1.52;;
15629;SDS011;7914;50.842;0.166;2023-10-19T14:12:47;10.63;;;2.03;;
15629;SDS011;7914;50.842;0.166;2023-10-19T14:15:20;10.88;;;2.10;;
15629;SDS011;7914;50.842;0.166;2023-10-19T14:17:46;8.13;;;2.22;;
15629;SDS011;7914;50.842;0.166;2023-10-19T14:20:13;10.32;;;2.55;;
15629;SDS011;7914;50.842;0.166;2023-10-19T14:22:41;6.18;;;1.70;;
15629;SDS011;7914;50.842;0.166;2023-10-19T14:25:12;9.63;;;2.05;;
15629;SDS011;7914;50.842;0.166;2023-10-19T14:27:41;10.25;;;2.63;;
15629;SDS011;7914;50.842;0.166;2023-10-19T14:30:10;9.60;;;2.15;;
15629;SDS011;7914;50.842;0.166;2023-10-19T14:32:44;7.75;;;2.40;;
15629;SDS011;7914;50.842;0.166;2023-10-19T14:35:15;8.60;;;2.38;;
15629;SDS011;7914;50.842;0.166;2023-10-19T14:37:43;14.13;;;2.40;;
15629;SDS011;7914;50.842;0.166;2023-10-19T14:40:11;10.82;;;2.53;;
15629;SDS011;7914;50.842;0.166;2023-10-19T14:42:39;12.48;;;2.53;;
15629;SDS011;7914;50.842;0.166;2023-10-19T14:45:26;9.73;;;2.10;;
15629;SDS011;7914;50.842;0.166;2023-10-19T14:47:56;10.80;;;2.28;;
15629;SDS011;7914;50.842;0.166;2023-10-19T14:50:23;11.15;;;2.90;;
15629;SDS011;7914;50.842;0.166;2023-10-19T14:52:50;8.60;;;2.25;;
15629;SDS011;7914;50.842;0.166;2023-10-19T14:55:17;7.80;;;2.17;;
15629;SDS011;7914;50.842;0.166;2023-10-19T14:57:43;9.80;;;2.75;;
15629;SDS011;7914;50.842;0.166;2023-10-19T15:00:11;12.88;;;3.13;;
15629;SDS011;7914;50.842;0.166;2023-10-19T15:02:46;8.80;;;2.20;;
15629;SDS011;7914;50.842;0.166;2023-10-19T15:05:14;10.55;;;2.45;;
15629;SDS011;7914;50.842;0.166;2023-10-19T15:07:43;8.57;;;2.45;;
15629;SDS011;7914;50.842;0.166;2023-10-19T15:10:11;10.63;;;2.70;;
15629;SDS011;7914;50.842;0.166;2023-10-19T15:12:38;8.55;;;2.42;;
15629;SDS011;7914;50.842;0.166;2023-10-19T15:15:05;12.80;;;2.55;;
15629;SDS011;7914;50.842;0.166;2023-10-19T15:17:37;10.60;;;3.05;;
15629;SDS011;7914;50.842;0.166;2023-10-19T15:20:06;8.65;;;2.95;;
15629;SDS011;7914;50.842;0.166;2023-10-19T15:22:37;8.18;;;2.80;;
15629;SDS011;7914;50.842;0.166;2023-10-19T15:25:06;18.42;;;3.17;;
15629;SDS011;7914;50.842;0.166;2023-10-19T15:27:36;11.50;;;2.88;;
15629;SDS011;7914;50.842;0.166;2023-10-19T15:30:03;8.60;;;2.58;;